Time;durP1;ratioP1;P1;durP2;ratioP2;P2;SDS_P1;SDS_P2;PMS_P1;PMS_P2;Temp;Humidity;BMP_temperature;BMP_pressure;BME280_temperature;BME280_humidity;BME280_pressure;Samples;Min_cycle;Max_cycle;Signal;HPM_P1;HPM_P2
2022/06/27 00:02:55;;;;;;;3.97;1.43;;;16.80;99.90;;;;;;20783957;28;20494;-79
2022/06/27 00:12:56;;;;;;;2.50;1.50;;;16.70;99.90;;;;;;20782008;28;20037;-80
2022/06/27 00:22:57;;;;;;;2.43;1.37;;;16.80;99.90;;;;;;20784166;28;20057;-81
2022/06/27 00:32:58;;;;;;;1.30;1.10;;;16.80;99.90;;;;;;20783483;28;20030;-81
2022/06/27 00:42:59;;;;;;;4.47;1.07;;;16.60;99.90;;;;;;20784059;28;20072;-80
2022/06/27 00:53:00;;;;;;;2.23;1.00;;;16.50;99.90;;;;;;20775367;28;20091;-81
2022/06/27 01:03:02;;;;;;;2.15;0.90;;;16.60;99.90;;;;;;20786173;28;20010;-81
2022/06/27 01:13:03;;;;;;;2.47;1.30;;;16.50;99.90;;;;;;20781902;28;20036;-79
2022/06/27 01:23:04;;;;;;;3.17;1.53;;;16.50;99.90;;;;;;20778519;28;20042;-81
2022/06/27 01:33:06;;;;;;;3.72;1.42;;;16.50;99.90;;;;;;20771794;28;20116;-79
2022/06/27 01:43:09;;;;;;;2.95;1.60;;;16.40;99.90;;;;;;20778518;28;20037;-82
2022/06/27 01:53:10;;;;;;;2.87;1.60;;;16.30;99.90;;;;;;20774583;28;20097;-81
2022/06/27 02:03:11;;;;;;;2.00;1.60;;;16.40;99.90;;;;;;20801784;23;20045;-78
2022/06/27 02:13:15;;;;;;;3.92;1.83;;;16.40;99.90;;;;;;20824292;28;20389;-77
2022/06/27 02:23:16;;;;;;;2.38;1.83;;;16.40;99.90;;;;;;20824410;28;20115;-77
2022/06/27 02:33:32;;;;;;;4.03;1.92;;;16.30;99.90;;;;;;20825757;28;20528;-77
2022/06/27 02:43:35;;;;;;;3.28;1.95;;;16.30;99.90;;;;;;20824587;28;20048;-78
2022/06/27 02:53:58;;;;;;;1.98;1.65;;;16.20;99.90;;;;;;20830024;28;20034;-77
2022/06/27 03:04:18;;;;;;;2.60;2.20;;;16.20;99.90;;;;;;20824052;28;20030;-77
2022/06/27 03:14:19;;;;;;;4.50;2.93;;;16.20;99.90;;;;;;20841130;28;20056;-77
2022/06/27 03:24:21;;;;;;;3.45;2.30;;;16.30;99.90;;;;;;20844080;28;20040;-76
2022/06/27 03:34:23;;;;;;;2.63;1.60;;;16.30;99.90;;;;;;20845924;28;20120;-77
2022/06/27 03:44:29;;;;;;;5.53;1.98;;;16.40;99.90;;;;;;20819366;28;20502;-77
2022/06/27 03:54:30;;;;;;;2.37;1.63;;;16.40;99.90;;;;;;20793268;28;20029;-75
2022/06/27 04:04:32;;;;;;;3.53;1.92;;;16.50;99.90;;;;;;20806309;28;20029;-77
2022/06/27 04:14:33;;;;;;;4.97;1.93;;;16.40;99.90;;;;;;20797417;28;20523;-76
2022/06/27 04:25:07;;;;;;;4.40;2.75;;;16.30;99.90;;;;;;20797276;28;20397;-77
2022/06/27 04:35:18;;;;;;;4.43;2.10;;;16.50;99.90;;;;;;20834380;28;20397;-77
2022/06/27 04:45:19;;;;;;;4.20;2.13;;;16.70;99.90;;;;;;20827334;28;20120;-77
2022/06/27 04:55:28;;;;;;;2.15;1.92;;;16.80;99.90;;;;;;20827641;28;20330;-77
2022/06/27 05:05:29;;;;;;;9.27;3.33;;;17.10;99.90;;;;;;20827238;28;20116;-77
2022/06/27 05:15:30;;;;;;;8.55;2.85;;;16.90;99.90;;;;;;20825265;28;20030;-76
2022/06/27 05:25:33;;;;;;;9.15;3.97;;;17.10;99.90;;;;;;20829855;28;20045;-77
2022/06/27 05:35:35;;;;;;;9.20;2.75;;;17.40;99.90;;;;;;20839064;28;20052;-77
2022/06/27 05:45:37;;;;;;;5.77;1.77;;;17.70;99.90;;;;;;20827384;28;20026;-77
2022/06/27 05:56:10;;;;;;;5.00;1.40;;;17.70;99.90;;;;;;20808240;28;20106;-77
2022/06/27 06:06:12;;;;;;;;;;;18.20;99.90;;;;;;20823555;28;20493;-76
2022/06/27 06:16:16;;;;;;;3.20;1.65;;;18.30;99.90;;;;;;20823972;28;19924;-77
2022/06/27 06:26:19;;;;;;;3.53;1.50;;;18.50;99.90;;;;;;20825979;28;20025;-76
2022/06/27 06:36:21;;;;;;;4.03;1.52;;;18.70;99.90;;;;;;20837365;28;20047;-75
2022/06/27 06:46:24;;;;;;;9.13;1.45;;;18.80;99.90;;;;;;20836470;28;20056;-75
2022/06/27 06:56:52;;;;;;;2.05;0.77;;;18.50;99.90;;;;;;20837222;28;20037;-76
2022/06/27 07:06:53;;;;;;;2.10;1.13;;;18.40;99.90;;;;;;20836327;28;20548;-76
2022/06/27 07:16:54;;;;;;;2.90;2.08;;;18.30;99.90;;;;;;20834544;28;20029;-76
2022/06/27 07:26:57;;;;;;;1.73;1.43;;;18.40;99.90;;;;;;20834992;28;20648;-76
2022/06/27 07:36:58;;;;;;;2.13;1.30;;;18.60;99.90;;;;;;20832709;28;20034;-77
2022/06/27 07:47:01;;;;;;;2.08;1.45;;;18.70;99.90;;;;;;20833386;28;20033;-77
2022/06/27 08:07:14;;;;;;;7.88;0.90;;;19.10;99.90;;;;;;20677517;28;20046;-82
2022/06/27 08:17:15;;;;;;;1.67;0.90;;;19.60;99.90;;;;;;20673634;28;20030;-82
2022/06/27 08:27:15;;;;;;;3.30;1.07;;;20.20;99.90;;;;;;20657091;28;20054;-82
2022/06/27 08:37:17;;;;;;;4.60;1.07;;;20.20;99.90;;;;;;20656196;28;20034;-82
2022/06/27 08:47:19;;;;;;;1.83;0.73;;;21.10;99.90;;;;;;20671421;28;20037;-82
2022/06/27 08:57:22;;;;;;;1.10;0.60;;;21.90;99.90;;;;;;20691971;28;20061;-82
2022/06/27 09:07:23;;;;;;;0.52;0.52;;;21.70;99.90;;;;;;20676811;28;20042;-82
2022/06/27 09:17:25;;;;;;;;;;;21.30;99.90;;;;;;20679699;28;20096;-82
2022/06/27 09:27:45;;;;;;;0.85;0.52;;;20.70;99.90;;;;;;20650475;28;19953;-82
2022/06/27 09:38:03;;;;;;;0.85;0.47;;;20.30;99.90;;;;;;20680166;28;20038;-81
2022/06/27 09:48:06;;;;;;;0.82;0.47;;;20.00;99.90;;;;;;20668256;28;20034;-82
2022/06/27 09:58:09;;;;;;;1.58;0.70;;;20.10;99.90;;;;;;20672993;28;20077;-82
2022/06/27 10:08:10;;;;;;;1.60;0.60;;;20.30;99.90;;;;;;20686390;28;20042;-82
2022/06/27 10:18:11;;;;;;;3.42;0.90;;;20.60;99.90;;;;;;20667983;28;20101;-82
2022/06/27 10:28:13;;;;;;;0.45;0.32;;;20.60;99.90;;;;;;20594161;28;20038;-81
2022/06/27 10:38:31;;;;;;;0.95;0.40;;;22.90;99.90;;;;;;20600065;28;20054;-82
2022/06/27 10:48:35;;;;;;;0.30;0.30;;;22.50;99.90;;;;;;20598432;28;20046;-81
2022/06/27 10:58:35;;;;;;;1.40;0.20;;;21.70;99.90;;;;;;20596631;28;20039;-81
2022/06/27 11:08:46;;;;;;;0.60;0.30;;;22.50;99.90;;;;;;20604967;28;20031;-81
2022/06/27 11:40:04;;;;;;;0.35;0.35;;;22.60;99.90;;;;;;20611757;28;20038;-82
2022/06/27 11:50:11;;;;;;;0.50;0.43;;;21.70;99.90;;;;;;20600736;28;20041;-81
2022/06/27 12:00:24;;;;;;;2.40;0.60;;;21.90;99.90;;;;;;20599312;28;20062;-82
2022/06/27 12:10:42;;;;;;;0.73;0.60;;;22.30;99.90;;;;;;20607684;28;20491;-81
2022/06/27 12:20:44;;;;;;;1.20;0.40;;;21.90;99.90;;;;;;20598188;28;20043;-81
2022/06/27 12:30:44;;;;;;;0.57;0.55;;;21.80;99.90;;;;;;20594586;28;20031;-81
2022/06/27 12:40:45;;;;;;;1.70;0.70;;;21.70;99.90;;;;;;20594599;28;20031;-80
2022/06/27 12:50:46;;;;;;;1.03;0.40;;;21.70;99.90;;;;;;20593985;28;20062;-81
2022/06/27 13:00:47;;;;;;;3.07;0.57;;;21.80;99.90;;;;;;20591631;28;20042;-80
2022/06/27 13:10:48;;;;;;;0.30;0.30;;;21.30;99.90;;;;;;20589831;28;20046;-81
2022/06/27 13:20:49;;;;;;;1.37;0.70;;;21.20;99.90;;;;;;20592406;28;20482;-81
2022/06/27 13:30:50;;;;;;;1.23;0.80;;;21.00;99.90;;;;;;20589350;28;20050;-80
2022/06/27 13:40:51;;;;;;;0.98;0.60;;;21.40;99.90;;;;;;20592750;28;20121;-81
2022/06/27 13:50:52;;;;;;;1.80;0.60;;;21.00;99.90;;;;;;20591869;28;20039;-81
2022/06/27 14:00:52;;;;;;;0.40;0.40;;;22.20;99.90;;;;;;20656005;23;20042;-75
2022/06/27 14:10:54;;;;;;;2.35;0.50;;;22.00;99.90;;;;;;20742301;28;20545;-75
2022/06/27 14:20:55;;;;;;;1.13;0.67;;;21.90;99.90;;;;;;20713982;28;20026;-75
2022/06/27 14:30:56;;;;;;;1.10;0.80;;;21.10;99.90;;;;;;20703171;28;20765;-74
2022/06/27 14:40:57;;;;;;;3.40;0.80;;;21.00;99.90;;;;;;20705957;28;20113;-75
2022/06/27 14:50:58;;;;;;;1.47;0.80;;;20.80;99.90;;;;;;20718307;28;20101;-75
2022/06/27 15:00:59;;;;;;;1.07;0.70;;;20.40;99.90;;;;;;20735449;28;20092;-75
2022/06/27 15:21:19;;;;;;;1.08;0.88;;;19.90;99.90;;;;;;20735113;28;20084;-75
2022/06/27 15:31:20;;;;;;;1.30;1.07;;;19.60;99.90;;;;;;20734948;28;20113;-75
2022/06/27 15:41:21;;;;;;;1.13;0.70;;;19.70;99.90;;;;;;20723484;28;20029;-75
2022/06/27 15:51:23;;;;;;;3.10;0.90;;;20.00;99.90;;;;;;20701366;28;20486;-75
2022/06/27 16:01:24;;;;;;;2.60;1.10;;;20.40;99.90;;;;;;20668007;28;20073;-75
2022/06/27 16:11:24;;;;;;;2.73;0.97;;;19.90;99.90;;;;;;20669120;28;20462;-75
2022/06/27 16:21:25;;;;;;;1.80;0.80;;;19.40;99.90;;;;;;20668159;28;20570;-75
2022/06/27 16:31:41;;;;;;;1.63;0.90;;;19.90;99.90;;;;;;20667143;28;20034;-75
2022/06/27 16:52:01;;;;;;;2.90;1.10;;;20.30;99.90;;;;;;20665352;28;20046;-75
2022/06/27 17:02:02;;;;;;;1.40;1.30;;;19.50;99.90;;;;;;20663397;28;20038;-74
2022/06/27 17:12:03;;;;;;;4.77;1.30;;;19.20;99.90;;;;;;20663465;28;20068;-75
2022/06/27 17:22:04;;;;;;;4.00;1.10;;;19.00;99.90;;;;;;20662080;28;20117;-75
2022/06/27 17:32:06;;;;;;;4.67;1.30;;;19.20;99.90;;;;;;20663012;28;20482;-75
2022/06/27 17:42:07;;;;;;;4.90;1.40;;;19.40;99.90;;;;;;20662257;28;20728;-75
2022/06/27 17:52:08;;;;;;;4.63;1.42;;;19.50;99.90;;;;;;20661770;28;20512;-75
2022/06/27 18:02:09;;;;;;;6.97;2.40;;;19.30;99.90;;;;;;20661313;28;20165;-74
2022/06/27 18:12:11;;;;;;;5.03;1.40;;;19.30;99.90;;;;;;20662773;28;20038;-74
2022/06/27 18:22:12;;;;;;;2.00;1.38;;;19.20;99.90;;;;;;20746133;28;20034;-74
2022/06/27 18:32:13;;;;;;;1.37;1.07;;;19.00;99.90;;;;;;20729908;28;20026;-75
2022/06/27 18:42:17;;;;;;;1.80;0.97;;;18.70;99.90;;;;;;20714139;28;20037;-74
2022/06/27 18:52:19;;;;;;;1.98;0.80;;;18.50;99.90;;;;;;20735158;28;20029;-75
2022/06/27 19:02:20;;;;;;;2.85;0.80;;;18.40;99.90;;;;;;20732991;28;20034;-74
2022/06/27 19:12:21;;;;;;;1.87;1.10;;;18.30;99.90;;;;;;20720870;28;20060;-74
2022/06/27 19:22:24;;;;;;;1.20;1.10;;;18.40;99.90;;;;;;20717329;28;20113;-75
2022/06/27 19:32:25;;;;;;;1.65;1.15;;;18.30;99.90;;;;;;20712931;28;20132;-76
2022/06/27 19:42:26;;;;;;;;;;;18.20;99.90;;;;;;20714824;28;20077;-76
2022/06/27 19:52:27;;;;;;;3.37;1.20;;;17.80;99.90;;;;;;20717995;28;20369;-76
2022/06/27 20:02:28;;;;;;;1.53;1.23;;;17.80;99.90;;;;;;20777938;23;20364;-82
2022/06/27 20:12:29;;;;;;;2.60;1.00;;;17.70;99.90;;;;;;20758857;28;20040;-80
2022/06/27 20:22:31;;;;;;;2.47;1.30;;;17.70;99.90;;;;;;20734143;28;20041;-81
2022/06/27 20:32:35;;;;;;;3.75;1.55;;;17.60;99.90;;;;;;20729455;28;20038;-81
2022/06/27 20:42:37;;;;;;;4.70;1.55;;;17.30;99.90;;;;;;20724157;28;20478;-81
2022/06/27 20:52:39;;;;;;;;;;;17.00;99.90;;;;;;20728831;28;20057;-81
2022/06/27 21:02:40;;;;;;;4.47;1.30;;;17.00;99.90;;;;;;20736079;28;20055;-82
2022/06/27 21:12:43;;;;;;;2.05;1.20;;;16.80;99.90;;;;;;20741795;28;20124;-82
2022/06/27 21:22:44;;;;;;;4.97;1.27;;;16.60;99.90;;;;;;20716122;28;20045;-82
2022/06/27 21:32:45;;;;;;;3.17;1.30;;;16.50;99.90;;;;;;20765295;28;20564;-82
2022/06/27 21:42:48;;;;;;;2.07;1.43;;;16.40;99.90;;;;;;20766239;28;20130;-82
2022/06/27 21:52:49;;;;;;;8.88;1.58;;;16.30;99.90;;;;;;20762580;28;20029;-81
2022/06/27 22:02:51;;;;;;;2.20;1.10;;;16.00;99.90;;;;;;20757985;28;20036;-81
2022/06/27 22:12:52;;;;;;;;;;;16.10;99.90;;;;;;20758355;28;20038;-82
2022/06/27 22:22:53;;;;;;;4.80;1.10;;;15.90;99.90;;;;;;20758278;28;20064;-81
2022/06/27 22:32:54;;;;;;;2.73;1.30;;;15.70;99.90;;;;;;20759127;28;20037;-82
2022/06/27 22:42:54;;;;;;;5.80;1.03;;;15.10;99.90;;;;;;20759724;28;20368;-82
2022/06/27 22:52:55;;;;;;;2.97;0.80;;;15.00;99.90;;;;;;20768706;28;20065;-82
2022/06/27 23:02:56;;;;;;;3.13;1.07;;;14.80;99.90;;;;;;20766851;28;20033;-81
2022/06/27 23:12:57;;;;;;;8.73;1.03;;;14.80;99.90;;;;;;20776931;28;20474;-81
2022/06/27 23:22:58;;;;;;;1.87;0.77;;;14.70;99.90;;;;;;20801090;28;20418;-83
2022/06/27 23:32:59;;;;;;;1.50;1.00;;;14.60;99.90;;;;;;20768780;28;20022;-82
2022/06/27 23:43:00;;;;;;;2.67;1.10;;;14.60;99.90;;;;;;20766233;28;20087;-82
2022/06/27 23:53:01;;;;;;;4.03;1.00;;;14.60;99.90;;;;;;20770353;28;20399;-81
